Skip to Main Content

Video Notice: If you see just a black screen when trying to view Live Traffic cameras, please click inside the window to get video to play. An update to certain browsers is not allowing the video to auto-play when the window opens. 

SEARCH:
Location Air RH Dwp Precip Type Wind Speed Wind Gust Direction Pavement Temperature Date/Time
Hatem Bridge US 40 E/B 52 60 39 None 11 mph 13 mph S 50 - 50 10/22/2018 6:23:00 PM
I-270 at I-370 53 54 37 None Calm Calm N 56 - 61 10/22/2018 6:20:00 PM
I-270 at MD-109 50 65 39 None Calm Calm W 53 - 58 10/22/2018 6:20:00 PM
I-495 at American Legion Bridge 54 52 37 None Calm 6 mph N 62 - 62 10/22/2018 6:20:00 PM
I-68 at Savage Mt 50 46 30 None Calm 7 mph W 55 - 55 10/22/2018 6:20:00 PM
I-68 at Sideling Hill 51 65 40 None Calm Calm NW 61 - 61 10/22/2018 6:20:00 PM
I-68 at US 219 48 43 27 None 10 mph 21 mph SW 50 - 55 10/22/2018 6:20:00 PM
I-68 at WV Line 50 40 27 None 4 mph 10 mph SW 56 - 56 10/22/2018 6:20:00 PM
I-695 at I-83 51 54 35 None Calm 10 mph SW 56 - 59 10/22/2018 6:20:00 PM
I-695 on FSK Bridge 53 51 35 None 13 mph 14 mph N 54 - 54 10/22/2018 6:21:00 PM
I-70 at Fred-Wash Co. 48 66 37 None 4 mph 12 mph SE 47 - 54 10/22/2018 6:20:00 PM
I-70 at I-695 51 57 36 None Calm 9 mph S 55 - 60 10/22/2018 6:20:00 PM
I-70 at I-81 52 56 37 None 6 mph 10 mph SE 54 - 54 10/22/2018 6:20:00 PM
I-70 at MD-27 50 58 36 None Calm 8 mph S 55 - 57 10/22/2018 6:20:00 PM
I-70 at MD-32 50 59 36 None Calm 6 mph SE 58 - 59 10/22/2018 6:20:00 PM
I-83 at MD-137 51 57 37 None Calm 7 mph SE 54 - 58 10/22/2018 6:20:00 PM
I-95 at I-695 NE 54 49 35 None 5 mph 7 mph SW 55 - 61 10/22/2018 6:21:00 PM
I-95 at Patuxent River 53 55 37 None 4 mph 9 mph S 59 - 60 10/22/2018 6:20:00 PM
I-95 at Tydings Bridge 52 62 39 None Calm 10 mph NE 56 - 60 10/22/2018 6:20:00 PM
I-95/495 at I-295 58 51 40 None Calm 5 mph S 57 - 62 10/22/2018 6:20:00 PM
I-97 at MD-100 53 51 36 None 8 mph 13 mph SW 58 - 61 10/22/2018 6:20:00 PM
I-97 at MD-32 50 58 36 None Calm 5 mph SW 56 - 59 10/22/2018 6:20:00 PM
MD 136 @ MD 646 48 71 39 No Data Available Calm Calm S 60 - 60 10/22/2018 6:20:00 PM
MD 20 at MD 21 50 63 38 None 4 mph 8 mph S 59 - 59 10/22/2018 6:20:00 PM
MD 23 at Meadowtree Road 49 57 35 No Data Available Calm 4 mph SE 55 - 55 10/22/2018 6:20:00 PM
MD 231 at Patuxent River 53 58 38 None 4 mph 8 mph SW 58 - 61 10/22/2018 6:20:00 PM
MD 24 at Jarrettsville Road 50 69 40 No Data Available Calm Calm SW 61 - 61 10/22/2018 6:20:00 PM
MD 260 at Cox Rd 50 64 38 None Calm Calm SW 63 - 63 10/22/2018 6:20:00 PM
MD-135 at Salt Dome 48 40 25 None 5 mph 10 mph SW 55 - 55 10/22/2018 6:20:00 PM
MD-140 at MD-97 48 64 37 None 5 mph 9 mph S 56 - 57 10/22/2018 6:20:00 PM
MD-200 EB at Bonifant Rd - - - No Data Available - - No Data Available -
MD-200 WB at Muncaster Mill Rd 50 58 36 None Calm Calm SE 54 - 54 10/22/2018 6:20:00 PM
MD-213 at Sassafras River 51 63 39 None 4 mph 7 mph S 55 - 55 10/22/2018 6:20:00 PM
MD-24 at Rock St Park 49 81 44 None Calm Calm N 49 - 49 10/22/2018 6:20:00 PM
MD-30 at PA Line 50 63 38 None 5 mph 12 mph S 59 - 59 10/22/2018 6:20:00 PM
MD-33 at Knapps Narrows Drawbridge 54 53 37 None 7 mph 14 mph SW 67 - 67 10/22/2018 6:20:00 PM
MD-344 at MD-224 52 64 41 None Calm Calm N 55 - 55 10/22/2018 6:20:00 PM
MD-4 at Patuxent River 54 58 40 None 7 mph 9 mph S 57 - 61 10/22/2018 6:20:00 PM
MD-404 at Choptank River 51 61 38 None Calm 7 mph S 57 - 60 10/22/2018 6:20:00 PM
MD-43 at MD-150 54 53 37 None 6 mph 11 mph SW 57 - 62 10/22/2018 6:20:00 PM
MD-51 at Oldtown Salt Dome 52 63 40 None Calm 4 mph N 65 - 65 10/22/2018 6:20:00 PM
MD-64 at MD-418 51 54 35 None 7 mph 10 mph S 60 - 60 10/22/2018 6:20:00 PM
US 301 at MD 305 51 60 37 None 6 mph 10 mph S 59 - 60 10/22/2018 6:20:00 PM
US-1 at Baltimore / Harford Co. Line 49 69 40 None Calm Calm N 52 - 53 10/22/2018 6:20:00 PM
US-1 at Conowingo Dam 52 66 41 None Calm 6 mph S 62 - 62 10/22/2018 6:20:00 PM
US-13 at US-113 51 64 40 None 4 mph 6 mph S 63 - 63 10/22/2018 6:20:00 PM
US-13 at US-50 50 68 40 None Calm 7 mph S 54 - 54 10/22/2018 6:20:00 PM
US-15 at MD-140 50 57 36 None 4 mph 8 mph S 56 - 59 10/22/2018 6:20:00 PM
US-301 at MD-5 52 60 39 None Calm 5 mph SW 60 - 61 10/22/2018 6:20:00 PM
US-301 at Potomac 57 61 44 None 12 mph 15 mph SW 58 - 58 10/22/2018 6:21:00 PM
US-340 at MD-180 51 58 36 None Calm 6 mph SE 57 - 58 10/22/2018 6:20:00 PM
US-50 at Choptank 53 72 44 None Calm 6 mph S 56 - 60 10/22/2018 6:20:00 PM
US-50 at I-95 53 54 37 None Calm 5 mph S 56 - 60 10/22/2018 6:20:00 PM
US-50 at MD-2 51 61 38 None 4 mph 7 mph S 55 - 57 10/22/2018 6:20:00 PM
US-50 at MD-331 52 66 41 None 9 mph 12 mph SW 56 - 61 10/22/2018 6:20:00 PM
US-50 at OC Drawbridge 51 63 39 None Calm 7 mph W 61 - 61 10/22/2018 6:20:00 PM
US-50 at Table Rock Rd 48 43 27 None Calm 9 mph NW 57 - 57 10/22/2018 6:20:00 PM
US-50 Kent Narrow Bridge 53 60 40 None 6 mph 13 mph S 56 - 60 10/22/2018 6:20:00 PM
WPL Pier 31 54 50 36 None 5 mph 17 mph NW 54 - 54 10/22/2018 6:24:00 PM
Location Air RH Dwp Precip Type Wind Speed Wind Gust Direction Pavement Temperature Date/Time